Time;durP1;ratioP1;P1;durP2;ratioP2;P2;SDS_P1;SDS_P2;PMS_P1;PMS_P2;Temp;Humidity;BMP_temperature;BMP_pressure;BME280_temperature;BME280_humidity;BME280_pressure;Samples;Min_cycle;Max_cycle;Signal;HPM_P1;HPM_P2
2021/06/26 00:00:11;;;;;;;;;7.33;7.00;;;;;-147.17;100.00;59696.56;4993018;28;52231;-67
2021/06/26 00:02:37;;;;;;;;;7.75;7.75;;;;;-147.17;100.00;59696.56;4992570;28;51374;-67
2021/06/26 00:05:03;;;;;;;;;5.67;5.67;;;;;-147.17;100.00;59696.56;4975875;28;53439;-66
2021/06/26 00:07:29;;;;;;;;;7.00;7.00;;;;;-147.17;100.00;59696.56;4955056;28;51065;-66
2021/06/26 00:09:54;;;;;;;;;7.00;7.00;;;;;-147.17;100.00;59696.56;4956214;28;51148;-66
2021/06/26 00:12:19;;;;;;;;;6.67;6.00;;;;;-147.17;100.00;59696.56;4973146;28;51009;-66
2021/06/26 00:14:45;;;;;;;;;8.33;8.33;;;;;-147.17;100.00;59696.56;4972346;28;51365;-66
2021/06/26 00:17:12;;;;;;;;;7.67;7.67;;;;;-147.17;100.00;59696.56;4972234;28;51101;-66
2021/06/26 00:19:37;;;;;;;;;7.00;7.00;;;;;-147.17;100.00;59696.56;4954994;28;51109;-66
2021/06/26 00:22:03;;;;;;;;;9.33;8.00;;;;;-147.17;100.00;59696.56;4972746;28;51371;-66
2021/06/26 00:24:29;;;;;;;;;6.67;6.67;;;;;-147.17;100.00;59696.56;4971896;28;52218;-66
2021/06/26 00:26:54;;;;;;;;;6.33;6.00;;;;;-147.17;100.00;59696.56;4972550;28;51094;-66
2021/06/26 00:29:20;;;;;;;;;5.00;5.00;;;;;-147.17;100.00;59696.56;4972418;28;50851;-65
2021/06/26 00:31:45;;;;;;;;;7.67;7.00;;;;;-147.17;100.00;59696.56;4972296;28;50948;-67
2021/06/26 00:34:10;;;;;;;;;8.00;8.00;;;;;-147.17;100.00;59696.56;4979283;28;52395;-67
2021/06/26 00:36:36;;;;;;;;;8.00;8.00;;;;;-147.17;100.00;59696.56;4977928;28;51046;-66
2021/06/26 00:39:01;;;;;;;;;8.00;7.33;;;;;-147.17;100.00;59696.56;4995696;28;51077;-65
2021/06/26 00:41:26;;;;;;;;;10.00;10.00;;;;;-147.17;100.00;59696.56;4958631;28;51204;-67
2021/06/26 00:43:52;;;;;;;;;9.00;9.00;;;;;-147.17;100.00;59696.56;4975882;28;51805;-67
2021/06/26 00:46:17;;;;;;;;;8.00;8.00;;;;;-147.17;100.00;59696.56;4986835;28;51096;-67
2021/06/26 00:48:42;;;;;;;;;11.00;11.00;;;;;-147.17;100.00;59696.56;4976075;28;51390;-65
2021/06/26 00:51:08;;;;;;;;;11.33;11.00;;;;;-147.17;100.00;59696.56;4976208;28;51236;-66
2021/06/26 00:53:33;;;;;;;;;12.00;12.00;;;;;-147.17;100.00;59696.56;4975494;28;51941;-67
2021/06/26 00:56:01;;;;;;;;;13.25;12.25;;;;;-147.17;100.00;59696.56;4975733;28;51197;-67
2021/06/26 00:58:27;;;;;;;;;13.67;13.33;;;;;-147.17;100.00;59696.56;4975850;28;51109;-66
2021/06/26 01:00:52;;;;;;;;;12.00;12.00;;;;;-147.17;100.00;59696.56;4975572;28;51135;-66
2021/06/26 01:03:18;;;;;;;;;14.75;14.75;;;;;-147.17;100.00;59696.56;4982653;28;50988;-67
2021/06/26 01:05:43;;;;;;;;;11.33;11.33;;;;;-147.17;100.00;59696.56;4981687;28;51053;-66
2021/06/26 01:08:09;;;;;;;;;12.00;11.75;;;;;-147.17;100.00;59696.56;4975238;28;50927;-66
2021/06/26 01:10:34;;;;;;;;;12.33;11.67;;;;;-147.17;100.00;59696.56;4975575;28;51387;-66
2021/06/26 01:13:00;;;;;;;;;13.00;13.00;;;;;-147.17;100.00;59696.56;4975281;28;52230;-66
2021/06/26 01:15:25;;;;;;;;;11.00;11.00;;;;;-147.17;100.00;59696.56;4975494;28;50924;-67
2021/06/26 01:17:50;;;;;;;;;12.00;12.00;;;;;-147.17;100.00;59696.56;4975255;28;51174;-66
2021/06/26 01:20:16;;;;;;;;;14.75;14.75;;;;;-147.17;100.00;59696.56;4975546;28;50825;-66
2021/06/26 01:22:44;;;;;;;;;12.75;12.75;;;;;-147.17;100.00;59696.56;4975171;28;52295;-66
2021/06/26 01:25:15;;;;;;;;;15.00;15.00;;;;;-147.17;100.00;59696.56;4957870;28;51060;-66
2021/06/26 01:27:42;;;;;;;;;14.25;13.00;;;;;-147.17;100.00;59696.56;4975375;28;51061;-66
2021/06/26 01:30:08;;;;;;;;;13.50;13.00;;;;;-147.17;100.00;59696.56;4975426;28;50927;-66
2021/06/26 01:32:33;;;;;;;;;14.00;13.25;;;;;-147.17;100.00;59696.56;4956873;28;53605;-66
2021/06/26 01:34:59;;;;;;;;;14.00;13.00;;;;;-147.17;100.00;59696.56;4987528;28;51018;-65
2021/06/26 01:37:24;;;;;;;;;14.00;13.50;;;;;-147.17;100.00;59696.56;4987543;28;51126;-66
2021/06/26 01:39:50;;;;;;;;;14.25;14.00;;;;;-147.17;100.00;59696.56;4986962;28;51282;-66
2021/06/26 01:42:15;;;;;;;;;12.25;12.25;;;;;-147.17;100.00;59696.56;4983606;28;51220;-67
2021/06/26 01:44:40;;;;;;;;;15.50;14.00;;;;;-147.17;100.00;59696.56;4975210;28;51030;-66
2021/06/26 01:47:08;;;;;;;;;15.00;15.00;;;;;-147.17;100.00;59696.56;4975320;28;51054;-67
2021/06/26 01:49:35;;;;;;;;;13.50;13.50;;;;;-147.17;100.00;59696.56;4975259;28;51327;-65
2021/06/26 01:52:01;;;;;;;;;13.67;12.00;;;;;-147.17;100.00;59696.56;4974796;28;51121;-65
2021/06/26 01:54:26;;;;;;;;;16.75;16.75;;;;;-147.17;100.00;59696.56;4974724;28;51058;-65
2021/06/26 01:56:51;;;;;;;;;15.50;15.25;;;;;-147.17;100.00;59696.56;4964575;28;51315;-66
2021/06/26 01:59:17;;;;;;;;;15.25;14.25;;;;;-147.17;100.00;59696.56;4994759;28;51287;-67
2021/06/26 02:01:42;;;;;;;;;18.50;17.75;;;;;-147.17;100.00;59696.56;4986932;28;52148;-65
2021/06/26 02:04:08;;;;;;;;;17.00;17.00;;;;;-147.17;100.00;59696.56;4988042;28;50974;-66
2021/06/26 02:06:33;;;;;;;;;18.25;17.00;;;;;-147.17;100.00;59696.56;4974950;28;51088;-65
2021/06/26 02:08:58;;;;;;;;;16.00;14.75;;;;;-147.17;100.00;59696.56;4974860;28;51337;-67
2021/06/26 02:11:24;;;;;;;;;15.25;14.75;;;;;-147.17;100.00;59696.56;4974686;28;52814;-65
2021/06/26 02:13:49;;;;;;;;;16.75;15.75;;;;;-147.17;100.00;59696.56;4974833;28;51051;-67
2021/06/26 02:16:15;;;;;;;;;15.00;15.00;;;;;-147.17;100.00;59696.56;4974483;28;51498;-67
2021/06/26 02:18:40;;;;;;;;;14.50;14.50;;;;;-147.17;100.00;59696.56;4974944;28;51227;-67
2021/06/26 02:21:06;;;;;;;;;13.50;13.50;;;;;-147.17;100.00;59696.56;4974571;28;51955;-67
2021/06/26 02:23:32;;;;;;;;;14.33;14.00;;;;;-147.17;100.00;59696.56;4974561;28;51040;-67
2021/06/26 02:25:57;;;;;;;;;12.00;11.67;;;;;-147.17;100.00;59696.56;4974695;28;51264;-66
2021/06/26 02:28:23;;;;;;;;;12.33;12.33;;;;;-147.17;100.00;59696.56;4974870;28;51045;-66
2021/06/26 02:30:48;;;;;;;;;11.67;11.33;;;;;-147.17;100.00;59696.56;4956577;28;52188;-66
2021/06/26 02:33:14;;;;;;;;;9.00;9.00;;;;;-147.17;100.00;59696.56;4974323;28;50912;-65
2021/06/26 02:35:39;;;;;;;;;16.50;14.50;;;;;-147.17;100.00;59696.56;4974421;28;51284;-67
2021/06/26 02:38:04;;;;;;;;;13.00;12.33;;;;;-147.17;100.00;59696.56;4988107;28;51281;-65
2021/06/26 02:40:31;;;;;;;;;11.33;11.00;;;;;-147.17;100.00;59696.56;4974724;28;51003;-66
2021/06/26 02:42:57;;;;;;;;;11.33;11.00;;;;;-147.17;100.00;59696.56;4974302;28;51034;-67
2021/06/26 02:45:22;;;;;;;;;14.00;14.00;;;;;-147.17;100.00;59696.56;4974188;28;51284;-67
2021/06/26 02:47:48;;;;;;;;;11.33;11.00;;;;;-147.17;100.00;59696.56;4974225;28;51235;-67
2021/06/26 02:50:13;;;;;;;;;15.00;14.75;;;;;-147.17;100.00;59696.56;4956390;28;51197;-66
2021/06/26 02:52:39;;;;;;;;;12.00;12.00;;;;;-147.17;100.00;59696.56;4974480;28;51066;-67
2021/06/26 02:55:05;;;;;;;;;13.25;12.75;;;;;-147.17;100.00;59696.56;4973936;28;51391;-66
2021/06/26 02:57:30;;;;;;;;;13.50;12.25;;;;;-147.17;100.00;59696.56;4974068;28;51147;-65
2021/06/26 02:59:56;;;;;;;;;6.50;6.00;;;;;-147.17;100.00;59696.56;4973743;28;51979;-66
2021/06/26 03:02:21;;;;;;;;;13.00;13.00;;;;;-147.17;100.00;59696.56;4985001;28;51087;-66
2021/06/26 03:04:47;;;;;;;;;17.00;17.00;;;;;-147.17;100.00;59696.56;4988053;28;51044;-66
2021/06/26 03:07:12;;;;;;;;;15.50;13.75;;;;;-147.17;100.00;59696.56;4974238;28;51049;-66
2021/06/26 03:09:38;;;;;;;;;11.00;11.00;;;;;-147.17;100.00;59696.56;4973586;28;53002;-65
2021/06/26 03:12:05;;;;;;;;;12.25;12.25;;;;;-147.17;100.00;59696.56;4956653;28;51082;-65
2021/06/26 03:14:30;;;;;;;;;10.33;9.33;;;;;-147.17;100.00;59696.56;4974122;28;51252;-67
2021/06/26 03:16:56;;;;;;;;;11.00;11.00;;;;;-147.17;100.00;59696.56;4973939;28;50912;-67
2021/06/26 03:19:21;;;;;;;;;9.33;9.33;;;;;-147.17;100.00;59696.56;4980589;28;52481;-65
2021/06/26 03:21:46;;;;;;;;;9.67;9.33;;;;;-147.17;100.00;59696.56;4984441;28;51147;-66
2021/06/26 03:24:12;;;;;;;;;12.67;11.67;;;;;-147.17;100.00;59696.56;4992612;28;51116;-65
2021/06/26 03:26:37;;;;;;;;;9.67;9.00;;;;;-147.17;100.00;59696.56;4993567;28;51008;-66
2021/06/26 03:29:04;;;;;;;;;11.00;11.00;;;;;-147.17;100.00;59696.56;4967652;28;50962;-66
2021/06/26 03:31:29;;;;;;;;;10.00;10.00;;;;;-147.17;100.00;59696.56;4995981;28;51229;-66
2021/06/26 03:33:55;;;;;;;;;13.67;13.33;;;;;-147.17;100.00;59696.56;4978649;28;51132;-67
2021/06/26 03:36:20;;;;;;;;;14.00;12.00;;;;;-147.17;100.00;59696.56;4992385;28;51449;-67
2021/06/26 03:38:46;;;;;;;;;11.67;10.67;;;;;-147.17;100.00;59696.56;4992948;28;51904;-65
2021/06/26 03:41:12;;;;;;;;;16.00;15.00;;;;;-147.17;100.00;59696.56;4986630;28;51118;-67
2021/06/26 03:43:38;;;;;;;;;14.00;14.00;;;;;-147.17;100.00;59696.56;4973400;28;51176;-66
2021/06/26 03:46:03;;;;;;;;;14.00;12.25;;;;;-147.17;100.00;59696.56;4984278;28;51164;-67
2021/06/26 03:48:29;;;;;;;;;13.00;11.67;;;;;-147.17;100.00;59696.56;4987237;28;52052;-67
2021/06/26 03:50:58;;;;;;;;;11.67;11.00;;;;;-147.17;100.00;59696.56;4978352;28;51067;-66
2021/06/26 03:53:24;;;;;;;;;12.67;12.00;;;;;-147.17;100.00;59696.56;4989912;28;51096;-66
2021/06/26 03:55:51;;;;;;;;;13.75;12.75;;;;;-147.17;100.00;59696.56;4977786;28;51279;-66
2021/06/26 03:58:22;;;;;;;;;11.33;11.33;;;;;-147.17;100.00;59696.56;4989999;28;51196;-66
2021/06/26 04:00:48;;;;;;;;;14.33;13.33;;;;;-147.17;100.00;59696.56;4987430;28;51124;-66
2021/06/26 04:03:15;;;;;;;;;13.50;12.75;;;;;-147.17;100.00;59696.56;4992637;28;51216;-66
2021/06/26 04:05:42;;;;;;;;;15.75;15.25;;;;;-147.17;100.00;59696.56;4980121;28;51229;-66
2021/06/26 04:08:07;;;;;;;;;18.50;17.50;;;;;-147.17;100.00;59696.56;4972774;28;51024;-66
2021/06/26 04:10:32;;;;;;;;;14.50;14.00;;;;;-147.17;100.00;59696.56;4955450;28;51009;-66
2021/06/26 04:12:58;;;;;;;;;15.75;15.00;;;;;-147.17;100.00;59696.56;4974879;28;51135;-66
2021/06/26 04:15:23;;;;;;;;;16.75;15.75;;;;;-147.17;100.00;59696.56;4971686;28;51439;-66
2021/06/26 04:17:48;;;;;;;;;17.50;16.25;;;;;-147.17;100.00;59696.56;4980907;28;52116;-65
2021/06/26 04:20:14;;;;;;;;;14.00;14.00;;;;;-147.17;100.00;59696.56;4992513;28;51092;-67
2021/06/26 04:22:40;;;;;;;;;15.75;15.50;;;;;-147.17;100.00;59696.56;4974701;28;50995;-66
2021/06/26 04:25:06;;;;;;;;;16.75;16.00;;;;;-147.17;100.00;59696.56;4992767;28;51033;-66
2021/06/26 04:27:31;;;;;;;;;13.50;13.00;;;;;-147.17;100.00;59696.56;4974443;28;53145;-66
2021/06/26 04:29:57;;;;;;;;;15.00;14.00;;;;;-147.17;100.00;59696.56;4974835;28;50972;-66
2021/06/26 04:32:25;;;;;;;;;14.00;14.00;;;;;-147.17;100.00;59696.56;4991512;28;51206;-66
2021/06/26 04:34:50;;;;;;;;;16.33;16.00;;;;;-147.17;100.00;59696.56;4980402;28;51044;-66
2021/06/26 04:37:17;;;;;;;;;13.75;13.00;;;;;-147.17;100.00;59696.56;4964276;28;52003;-67
2021/06/26 04:39:43;;;;;;;;;15.25;14.00;;;;;-147.17;100.00;59696.56;4987470;28;51316;-66
2021/06/26 04:42:08;;;;;;;;;14.00;14.00;;;;;-147.17;100.00;59696.56;4954655;28;51369;-66
2021/06/26 04:44:34;;;;;;;;;18.50;18.00;;;;;-147.17;100.00;59696.56;4972739;28;51198;-66
2021/06/26 04:46:59;;;;;;;;;17.50;16.25;;;;;-147.17;100.00;59696.56;4972007;28;52126;-66
2021/06/26 04:49:24;;;;;;;;;16.75;15.25;;;;;-147.17;100.00;59696.56;4972570;28;51078;-66
2021/06/26 04:51:50;;;;;;;;;20.00;18.75;;;;;-147.17;100.00;59696.56;4972419;28;51429;-66
2021/06/26 04:54:15;;;;;;;;;16.50;16.25;;;;;-147.17;100.00;59696.56;4987878;28;50941;-67
2021/06/26 04:56:41;;;;;;;;;18.25;16.75;;;;;-147.17;100.00;59696.56;4974112;28;51884;-68
2021/06/26 04:59:06;;;;;;;;;16.25;16.25;;;;;-147.17;100.00;59696.56;4985175;28;51997;-66
2021/06/26 05:01:31;;;;;;;;;20.00;17.75;;;;;-147.17;100.00;59696.56;4974288;28;51084;-65
2021/06/26 05:03:57;;;;;;;;;19.50;17.75;;;;;-147.17;100.00;59696.56;4992728;28;50944;-66
2021/06/26 05:06:22;;;;;;;;;19.00;18.00;;;;;-147.17;100.00;59696.56;4973625;28;51839;-67
2021/06/26 05:08:47;;;;;;;;;16.75;16.00;;;;;-147.17;100.00;59696.56;4939305;28;51043;-67
2021/06/26 05:11:13;;;;;;;;;19.00;17.25;;;;;-147.17;100.00;59696.56;4972585;28;51150;-67
2021/06/26 05:13:38;;;;;;;;;16.00;14.75;;;;;-147.17;100.00;59696.56;4972381;28;51312;-67
2021/06/26 05:16:04;;;;;;;;;16.25;16.00;;;;;-147.17;100.00;59696.56;4971362;28;50883;-66
2021/06/26 05:18:29;;;;;;;;;11.75;11.75;;;;;-147.17;100.00;59696.56;4963914;28;51210;-66
2021/06/26 05:20:55;;;;;;;;;15.25;15.25;;;;;-147.17;100.00;59696.56;4974102;28;50957;-66
2021/06/26 05:23:21;;;;;;;;;19.00;19.00;;;;;-147.17;100.00;59696.56;4972307;28;51166;-67
2021/06/26 05:25:47;;;;;;;;;14.75;14.75;;;;;-147.17;100.00;59696.56;4972696;28;52313;-66
2021/06/26 05:28:13;;;;;;;;;14.50;14.00;;;;;-147.17;100.00;59696.56;4975393;28;51114;-67
2021/06/26 05:30:39;;;;;;;;;16.00;15.25;;;;;-147.17;100.00;59696.56;4975035;28;51142;-65
2021/06/26 05:33:05;;;;;;;;;13.00;13.00;;;;;-147.17;100.00;59696.56;4975522;28;51357;-65
2021/06/26 05:35:31;;;;;;;;;13.00;13.00;;;;;-147.17;100.00;59696.56;4975531;28;52116;-67
2021/06/26 05:37:56;;;;;;;;;13.50;12.50;;;;;-147.17;100.00;59696.56;4988379;28;50986;-65
2021/06/26 05:40:23;;;;;;;;;12.33;11.33;;;;;-147.17;100.00;59696.56;4977239;28;50847;-67
2021/06/26 05:42:48;;;;;;;;;12.67;11.00;;;;;-147.17;100.00;59696.56;4975349;28;51210;-66
2021/06/26 05:45:14;;;;;;;;;8.67;8.00;;;;;-147.17;100.00;59696.56;4979053;28;51592;-67
2021/06/26 05:47:39;;;;;;;;;9.67;9.67;;;;;-147.17;100.00;59696.56;4994468;28;51048;-66
2021/06/26 05:50:05;;;;;;;;;10.67;9.00;;;;;-147.17;100.00;59696.56;4994643;28;51176;-66
2021/06/26 05:52:30;;;;;;;;;9.00;9.00;;;;;-147.17;100.00;59696.56;4977156;28;51014;-66
2021/06/26 05:54:56;;;;;;;;;8.33;8.00;;;;;-147.17;100.00;59696.56;4989030;28;51147;-66
2021/06/26 05:57:23;;;;;;;;;8.33;8.33;;;;;-147.17;100.00;59696.56;4985763;28;51124;-66
2021/06/26 05:59:48;;;;;;;;;9.00;8.33;;;;;-147.17;100.00;59696.56;4994395;28;51073;-66
2021/06/26 06:02:13;;;;;;;;;10.00;9.00;;;;;-147.17;100.00;59696.56;4994330;28;51136;-67
2021/06/26 06:04:42;;;;;;;;;9.33;8.00;;;;;-147.17;100.00;59696.56;4988505;28;52894;-65
2021/06/26 06:07:11;;;;;;;;;9.67;9.67;;;;;-147.17;100.00;59696.56;4974646;28;50966;-66
2021/06/26 06:09:36;;;;;;;;;9.33;9.00;;;;;-147.17;100.00;59696.56;4962419;28;51184;-66
2021/06/26 06:12:02;;;;;;;;;11.67;9.00;;;;;-147.17;100.00;59696.56;4982170;28;51158;-66
2021/06/26 06:14:28;;;;;;;;;9.00;8.67;;;;;-147.17;100.00;59696.56;4973050;28;51272;-65
2021/06/26 06:16:53;;;;;;;;;12.33;10.67;;;;;-147.17;100.00;59696.56;4974215;28;51046;-66
2021/06/26 06:19:19;;;;;;;;;9.00;8.67;;;;;-147.17;100.00;59696.56;4974507;28;51061;-67
2021/06/26 06:21:44;;;;;;;;;7.00;7.00;;;;;-147.17;100.00;59696.56;4974736;28;51321;-66
2021/06/26 06:24:10;;;;;;;;;7.00;7.00;;;;;-147.17;100.00;59696.56;4974217;28;51740;-66
2021/06/26 06:26:35;;;;;;;;;9.00;8.00;;;;;-147.17;100.00;59696.56;4973851;28;51054;-66
2021/06/26 06:29:00;;;;;;;;;7.33;7.33;;;;;-147.17;100.00;59696.56;4974462;28;51032;-66
2021/06/26 06:31:26;;;;;;;;;7.00;7.00;;;;;-147.17;100.00;59696.56;4974256;28;51287;-66
2021/06/26 06:33:51;;;;;;;;;7.00;7.00;;;;;-147.17;100.00;59696.56;4978461;28;52065;-66
2021/06/26 06:36:16;;;;;;;;;6.00;6.00;;;;;-147.17;100.00;59696.56;4982288;28;50958;-65
2021/06/26 06:38:42;;;;;;;;;7.67;7.00;;;;;-147.17;100.00;59696.56;4997107;28;51185;-64
2021/06/26 06:41:07;;;;;;;;;7.67;7.33;;;;;-147.17;100.00;59696.56;4985152;28;51197;-67
2021/06/26 06:43:32;;;;;;;;;8.00;8.00;;;;;-147.17;100.00;59696.56;4976226;28;50995;-67
2021/06/26 06:45:58;;;;;;;;;6.00;6.00;;;;;-147.17;100.00;59696.56;4975057;28;50982;-66
2021/06/26 06:48:23;;;;;;;;;6.00;6.00;;;;;-147.17;100.00;59696.56;4957398;28;51145;-66
2021/06/26 06:50:49;;;;;;;;;8.00;8.00;;;;;-147.17;100.00;59696.56;4975398;28;50984;-67
2021/06/26 06:53:14;;;;;;;;;8.33;8.33;;;;;-147.17;100.00;59696.56;4974204;28;51985;-67
2021/06/26 06:55:40;;;;;;;;;10.33;10.00;;;;;-147.17;100.00;59696.56;4984472;28;51074;-67
2021/06/26 06:58:05;;;;;;;;;7.00;7.00;;;;;-147.17;100.00;59696.56;4993826;28;51120;-66
2021/06/26 07:00:30;;;;;;;;;15.00;15.00;;;;;-147.17;100.00;59696.56;4994037;28;51326;-67
2021/06/26 07:02:56;;;;;;;;;9.33;9.33;;;;;-147.17;100.00;59696.56;4993269;28;53070;-66
2021/06/26 07:05:21;;;;;;;;;9.00;8.33;;;;;-147.17;100.00;59696.56;4981632;28;51004;-66
2021/06/26 07:07:47;;;;;;;;;5.00;5.00;;;;;-147.17;100.00;59696.56;4973369;28;51005;-66
2021/06/26 07:10:12;;;;;;;;;7.67;7.67;;;;;-147.17;100.00;59696.56;4976831;28;51190;-66
2021/06/26 07:12:38;;;;;;;;;5.00;5.00;;;;;-147.17;100.00;59696.56;4975778;28;52702;-67
2021/06/26 07:15:05;;;;;;;;;7.00;7.00;;;;;-147.17;100.00;59696.56;4976456;28;51078;-66
2021/06/26 07:17:30;;;;;;;;;7.67;7.00;;;;;-147.17;100.00;59696.56;4959159;28;51058;-68
2021/06/26 07:19:55;;;;;;;;;7.00;6.00;;;;;-147.17;100.00;59696.56;4979215;28;51311;-69
2021/06/26 07:22:21;;;;;;;;;7.33;7.33;;;;;-147.17;100.00;59696.56;4973186;28;52171;-67
2021/06/26 07:24:46;;;;;;;;;8.33;7.67;;;;;-147.17;100.00;59696.56;4973205;28;50919;-68
2021/06/26 07:27:12;;;;;;;;;7.33;6.67;;;;;-147.17;100.00;59696.56;4972933;28;51126;-68
2021/06/26 07:29:37;;;;;;;;;7.33;6.67;;;;;-147.17;100.00;59696.56;4973046;28;51031;-67
2021/06/26 07:32:03;;;;;;;;;8.00;8.00;;;;;-147.17;100.00;59696.56;4954969;28;51902;-67
2021/06/26 07:34:28;;;;;;;;;7.67;7.33;;;;;-147.17;100.00;59696.56;4964879;28;51131;-68
2021/06/26 07:36:54;;;;;;;;;6.67;6.67;;;;;-147.17;100.00;59696.56;4979100;28;51142;-66
2021/06/26 07:39:19;;;;;;;;;6.33;5.67;;;;;-147.17;100.00;59696.56;4972029;28;51398;-66
2021/06/26 07:41:44;;;;;;;;;8.33;8.33;;;;;-147.17;100.00;59696.56;4990972;28;51967;-67
2021/06/26 07:44:10;;;;;;;;;11.33;10.67;;;;;-147.17;100.00;59696.56;4975201;28;51025;-66
2021/06/26 07:46:35;;;;;;;;;10.67;10.67;;;;;-147.17;100.00;59696.56;4988333;28;51177;-66
2021/06/26 07:49:01;;;;;;;;;11.00;10.67;;;;;-147.17;100.00;59696.56;4973085;28;51022;-67
2021/06/26 07:51:26;;;;;;;;;9.00;8.67;;;;;-147.17;100.00;59696.56;4970719;28;52561;-67
2021/06/26 07:53:52;;;;;;;;;9.00;9.00;;;;;-147.17;100.00;59696.56;4979953;28;51154;-68
2021/06/26 07:56:18;;;;;;;;;11.67;10.67;;;;;-147.17;100.00;59696.56;4976287;28;51076;-68
2021/06/26 07:58:43;;;;;;;;;9.00;9.00;;;;;-147.17;100.00;59696.56;4972748;28;51071;-68
2021/06/26 08:01:08;;;;;;;;;9.00;9.00;;;;;-147.17;100.00;59696.56;4972147;28;51086;-69
2021/06/26 08:03:34;;;;;;;;;11.00;11.00;;;;;-147.17;100.00;59696.56;4980499;28;51028;-61
2021/06/26 08:05:59;;;;;;;;;10.67;10.00;;;;;-147.17;100.00;59696.56;4977964;28;51637;-59
2021/06/26 08:08:24;;;;;;;;;9.00;9.00;;;;;-147.17;100.00;59696.56;4968413;28;51266;-60
2021/06/26 08:10:50;;;;;;;;;10.67;10.67;;;;;-147.17;100.00;59696.56;4989652;28;51145;-60
2021/06/26 08:13:16;;;;;;;;;9.33;8.33;;;;;-147.17;100.00;59696.56;4991620;28;50883;-60
2021/06/26 08:15:44;;;;;;;;;12.33;11.33;;;;;-147.17;100.00;59696.56;4974461;28;51196;-60
2021/06/26 08:18:11;;;;;;;;;12.33;12.33;;;;;-147.17;100.00;59696.56;4992538;28;51000;-60
2021/06/26 08:20:36;;;;;;;;;12.00;11.00;;;;;-147.17;100.00;59696.56;4991976;28;51925;-60
2021/06/26 08:23:02;;;;;;;;;10.33;10.00;;;;;-147.17;100.00;59696.56;4992416;28;51010;-59
2021/06/26 08:25:28;;;;;;;;;11.00;11.00;;;;;-147.17;100.00;59696.56;4992258;28;51071;-60
2021/06/26 08:27:54;;;;;;;;;11.00;11.00;;;;;-147.17;100.00;59696.56;4988638;28;51084;-61
2021/06/26 08:30:21;;;;;;;;;9.00;9.00;;;;;-147.17;100.00;59696.56;4954041;28;52638;-59
2021/06/26 08:32:47;;;;;;;;;12.67;11.00;;;;;-147.17;100.00;59696.56;4955031;28;50965;-59
2021/06/26 08:35:14;;;;;;;;;12.67;11.67;;;;;-147.17;100.00;59696.56;4984391;28;51231;-61
2021/06/26 08:37:40;;;;;;;;;10.33;10.33;;;;;-147.17;100.00;59696.56;4988402;28;51254;-59
2021/06/26 08:40:07;;;;;;;;;13.00;12.00;;;;;-147.17;100.00;59696.56;4981849;28;51764;-61
2021/06/26 08:42:33;;;;;;;;;13.00;12.67;;;;;-147.17;100.00;59696.56;4972198;28;51140;-60
2021/06/26 08:45:01;;;;;;;;;13.00;12.00;;;;;-147.17;100.00;59696.56;4972219;28;50987;-59
2021/06/26 08:47:27;;;;;;;;;8.67;8.67;;;;;-147.17;100.00;59696.56;4975461;28;51243;-61
2021/06/26 08:49:52;;;;;;;;;10.33;10.33;;;;;-147.17;100.00;59696.56;4971378;28;50956;-61
2021/06/26 08:52:18;;;;;;;;;10.00;9.33;;;;;-147.17;100.00;59696.56;4972295;28;50943;-60
2021/06/26 08:54:43;;;;;;;;;11.67;11.00;;;;;-147.17;100.00;59696.56;4988486;28;50941;-60
2021/06/26 08:57:09;;;;;;;;;11.33;9.67;;;;;-147.17;100.00;59696.56;4991515;28;51070;-60
2021/06/26 08:59:34;;;;;;;;;12.67;12.33;;;;;-147.17;100.00;59696.56;4990750;28;52244;-60
2021/06/26 09:02:01;;;;;;;;;11.33;11.33;;;;;-147.17;100.00;59696.56;4993417;28;51101;-59
2021/06/26 09:04:27;;;;;;;;;11.00;11.00;;;;;-147.17;100.00;59696.56;4990515;28;51137;-60
2021/06/26 09:06:58;;;;;;;;;9.00;9.00;;;;;-147.17;100.00;59696.56;4981790;28;51291;-61
2021/06/26 09:09:31;;;;;;;;;10.00;10.00;;;;;-147.17;100.00;59696.56;4960181;28;51861;-61
2021/06/26 09:12:19;;;;;;;;;10.33;10.00;;;;;-147.17;100.00;59696.56;4975347;28;50950;-60
2021/06/26 09:14:45;;;;;;;;;10.00;10.00;;;;;-147.17;100.00;59696.56;4975281;28;51161;-61
2021/06/26 09:17:12;;;;;;;;;8.67;8.67;;;;;-147.17;100.00;59696.56;4975231;28;51255;-59
2021/06/26 09:19:38;;;;;;;;;12.33;12.33;;;;;-147.17;100.00;59696.56;4978911;28;51968;-60
2021/06/26 09:22:10;;;;;;;;;10.67;10.67;;;;;-147.17;100.00;59696.56;4979980;28;51256;-60
2021/06/26 09:24:41;;;;;;;;;10.67;10.00;;;;;-147.17;100.00;59696.56;4957752;28;51031;-61
2021/06/26 09:27:07;;;;;;;;;12.00;12.00;;;;;-147.17;100.00;59696.56;4974443;28;51147;-59
2021/06/26 09:29:33;;;;;;;;;10.00;10.00;;;;;-147.17;100.00;59696.56;4974155;28;51655;-60
2021/06/26 09:32:01;;;;;;;;;8.67;8.67;;;;;-147.17;100.00;59696.56;4974148;28;51033;-60
2021/06/26 09:34:42;;;;;;;;;7.00;7.00;;;;;-147.17;100.00;59696.56;4984059;28;51009;-59
2021/06/26 09:37:13;;;;;;;;;8.00;7.00;;;;;-147.17;100.00;59696.56;4985327;28;51251;-61
2021/06/26 09:39:43;;;;;;;;;9.67;9.33;;;;;-147.17;100.00;59696.56;4993596;28;51747;-61
2021/06/26 09:42:17;;;;;;;;;11.00;11.00;;;;;-147.17;100.00;59696.56;4993229;28;51113;-60
2021/06/26 09:44:55;;;;;;;;;10.00;9.00;;;;;-147.17;100.00;59696.56;4994106;28;51117;-59
2021/06/26 09:47:35;;;;;;;;;10.67;10.67;;;;;-147.17;100.00;59696.56;4994171;28;51133;-61
2021/06/26 09:50:12;;;;;;;;;10.00;10.00;;;;;-147.17;100.00;59696.56;4991727;28;50902;-60
2021/06/26 09:52:44;;;;;;;;;10.00;10.00;;;;;-147.17;100.00;59696.56;4985841;28;51037;-60
2021/06/26 09:55:28;;;;;;;;;8.00;8.00;;;;;-147.17;100.00;59696.56;4984479;28;51144;-61
2021/06/26 09:57:56;;;;;;;;;10.00;9.33;;;;;-147.17;100.00;59696.56;4957665;28;51111;-60
2021/06/26 10:00:23;;;;;;;;;9.00;9.00;;;;;-147.17;100.00;59696.56;4973820;28;53071;-61
2021/06/26 10:02:49;;;;;;;;;8.33;8.33;;;;;-147.17;100.00;59696.56;4956902;28;51117;-60
2021/06/26 10:05:15;;;;;;;;;8.00;8.00;;;;;-147.17;100.00;59696.56;4982687;28;51173;-61
2021/06/26 10:07:42;;;;;;;;;12.33;11.67;;;;;-147.17;100.00;59696.56;4981610;28;51143;-60
2021/06/26 10:10:12;;;;;;;;;7.00;7.00;;;;;-147.17;100.00;59696.56;4991126;28;52132;-60
2021/06/26 10:12:38;;;;;;;;;12.00;10.67;;;;;-147.17;100.00;59696.56;4991311;28;51136;-62
2021/06/26 10:15:06;;;;;;;;;11.00;11.00;;;;;-147.17;100.00;59696.56;4990468;28;51530;-59
2021/06/26 10:17:34;;;;;;;;;14.00;14.00;;;;;-147.17;100.00;59696.56;4978720;28;51034;-61
2021/06/26 10:20:00;;;;;;;;;10.33;10.33;;;;;-147.17;100.00;59696.56;4973479;28;51415;-60
2021/06/26 10:22:26;;;;;;;;;14.33;14.00;;;;;-147.17;100.00;59696.56;4982978;28;51158;-60
2021/06/26 10:24:53;;;;;;;;;11.00;11.00;;;;;-147.17;100.00;59696.56;4973927;28;51176;-61
2021/06/26 10:27:22;;;;;;;;;13.00;12.33;;;;;-147.17;100.00;59696.56;4975069;28;51148;-60
2021/06/26 10:29:48;;;;;;;;;12.00;12.00;;;;;-147.17;100.00;59696.56;4990571;28;51080;-60
2021/06/26 10:32:17;;;;;;;;;11.00;11.00;;;;;-147.17;100.00;59696.56;4992728;28;51037;-61
2021/06/26 10:34:50;;;;;;;;;11.00;11.00;;;;;-147.17;100.00;59696.56;4982824;28;50910;-61
2021/06/26 10:37:24;;;;;;;;;9.67;9.33;;;;;-147.17;100.00;59696.56;4976100;28;51252;-61
2021/06/26 10:40:06;;;;;;;;;13.33;13.33;;;;;-147.17;100.00;59696.56;4981816;28;51218;-60
2021/06/26 10:42:35;;;;;;;;;8.33;8.33;;;;;-147.17;100.00;59696.56;4974624;28;51186;-62
2021/06/26 10:45:06;;;;;;;;;10.00;9.00;;;;;-147.17;100.00;59696.56;4992431;28;51044;-62
2021/06/26 10:47:37;;;;;;;;;8.67;8.67;;;;;-147.17;100.00;59696.56;4992436;28;51108;-61
2021/06/26 10:50:11;;;;;;;;;7.00;7.00;;;;;-147.17;100.00;59696.56;4979998;28;51087;-61
2021/06/26 10:52:47;;;;;;;;;10.33;10.00;;;;;-147.17;100.00;59696.56;4992186;28;51001;-61
2021/06/26 10:55:33;;;;;;;;;9.67;9.00;;;;;-147.17;100.00;59696.56;4972637;28;51130;-62